Asaba International Airport

DNAS · Delta, Nigeria

Storia di METAR DNAS · Asaba International Airport

Di seguito sono riportati i METAR degli ultimi giorni. Seleziona un anno per sfogliare i METAR più vecchi, dall'anno 2007 in poi.

4 marzo 2024

Tempo Codice Tempo meteorologico Temp. Vista Base nuvolosa Vento METAR/SPECI
17:00
M
37 °C 10 km+ 1.600 ft 230° 230° 3 kt METAR DNEN 041600Z 23003KT 9999 BKN016 37/22 Q1007 NOSIG
16:00
M
37 °C 10 km+ 1.600 ft 220° 220° 4 kt METAR DNEN 041500Z 22004KT 9999 BKN016 37/22 Q1007 NOSIG
15:00
M
34 °C 10 km+ 1.500 ft 160° 160° 3 kt METAR DNEN 041400Z 16003KT 9999 BKN015 34/24 Q1008 NOSIG
14:00
M
34 °C 10 km+ 1.500 ft 210° 210° 3 kt METAR DNEN 041300Z 21003KT 9999 BKN015 34/24 Q1009 NOSIG
13:00
M
34 °C 10 km+ 1.500 ft 200° 200° 4 kt METAR DNEN 041200Z 20004KT 9999 BKN015 34/24 Q1010 NOSIG RH56
12:00
M
33 °C 10 km+ 1.400 ft 270° 270° 6 kt METAR DNEN 041100Z 27006KT 9999 BKN014 33/24 Q1011 NOSIG
10:00
V
31 °C 10 km+ - 250° 250° 7 kt METAR DNEN 040900Z 25007KT 9999 SCT013 31/23 Q1012 NOSIG RH63
09:00
V
29 °C 10 km+ - 260° 260° 6 kt METAR DNEN 040800Z 26006KT 9999 FEW012 29/24 Q1012 NOSIG
08:00
V
28 °C 10 km+ - 240° 240° 4 kt METAR DNEN 040700Z 24004KT 9999 FEW012 28/24 Q1011 NOSIG
07:00
V
28 °C 10 km+ - 230° 230° 6 kt METAR DNEN 040600Z 23006KT 9999 FEW011 28/24 Q1011 NOSIG
05:00
V
28 °C 10 km+ - 230° 230° 5 kt METAR DNEN 040400Z 23005KT 9999 FEW012 28/24 Q1010 NOSIG
04:00
V
28 °C 10 km+ - 110° 110° 6 kt METAR DNEN 040300Z 11006KT 9999 FEW012 28/24 Q1010 NOSIG
00:00
V
29 °C 10 km+ - 180° 180° 7 kt METAR DNEN 032300Z 18007KT 9999 NSC 29/25 Q1011 NOSIG

3 marzo 2024

Tempo Codice Tempo meteorologico Temp. Vista Base nuvolosa Vento METAR/SPECI
20:00
V
32 °C 10 km+ - 280° 280° 3 kt METAR DNEN 031900Z 28003KT 9999 FEW014 32/24 Q1010 NOSIG
19:00
V
33 °C 10 km+ - 290° 290° 5 kt METAR DNEN 031800Z 29005KT 9999 FEW014 33/23 Q1009 NOSIG
06:00
V
25 °C 10 km+ - 140° 140° 3 kt METAR DNEN 030500Z 14003KT 9999 SCT009 25/24 Q1011 NOSIG
05:00
V
25 °C 10 km+ - 110° 110° 3 kt METAR DNEN 030400Z 11003KT 9999 SCT009 25/24 Q1010 NOSIG
03:00
V
25 °C 10 km+ - 180° 180° 4 kt METAR DNEN 030200Z 18004KT 9999 FEW009 25/24 Q1010 NOSIG
02:00
V
26 °C 10 km+ - 140° 140° 4 kt METAR DNEN 030100Z 14004KT 9999 FEW010 26/24 Q1011 NOSIG

2 marzo 2024

Tempo Codice Tempo meteorologico Temp. Vista Base nuvolosa Vento METAR/SPECI
20:00
V
29 °C 10 km+ - 170° 170° 7 kt METAR DNEN 021900Z 17007KT 9999 TS SCT013 FEW020CB 29/24 Q1011 NOSIG
18:00
M
31 °C 8 km 1.200 ft 190° 190° 6 kt METAR DNEN 021700Z 19006KT 8000 TS BKN012 FEW020CB 31/24 Q1009 TEMPO 5000 -TSRA
17:00
M
32 °C 8 km 1.400 ft 190° 190° 10 kt METAR DNEN 021600Z 19010KT 8000 TS BKN014 FEW020CB 32/24 Q1009 TEMPO 5000 -TSRA
15:00
M
33 °C 8 km 1.400 ft 230° 230° 6 kt METAR DNEN 021400Z 23006KT 8000 BKN014 FEW020CB 33/25 Q1009 NOSIG
14:00
M
32 °C 8 km 1.400 ft 240° 240° 9 kt METAR DNEN 021300Z 24009KT 8000 BKN014 FEW020CB 32/25 Q1010 NOSIG
12:00
M
29 °C 8 km 1.300 ft 260° 260° 6 kt METAR DNEN 021100Z 26006KT 8000 BKN013 29/24 Q1011 NOSIG
11:00
M
28 °C 8 km 1.200 ft 230° 230° 8 kt METAR DNEN 021000Z 23008KT 8000 BKN012 28/24 Q1012 NOSIG
10:00
M
28 °C 8 km 1.200 ft 250° 250° 3 kt METAR DNEN 020900Z 25003KT 8000 BKN012 28/24 Q1013 NOSIG
09:00
M
29 °C 8 km 1.100 ft Var Var 2 kt METAR DNEN 020800Z VRB02KT 8000 BKN011 29/25 Q1012 NOSIG
08:00
M
29 °C 8 km 1.000 ft 100° 100° 6 kt METAR DNEN 020700Z 10006KT 8000 BKN010 29/24 Q1011 NOSIG